Time;durP1;ratioP1;P1;durP2;ratioP2;P2;SDS_P1;SDS_P2;PMS_P1;PMS_P2;Temp;Humidity;BMP_temperature;BMP_pressure;BME280_temperature;BME280_humidity;BME280_pressure;Samples;Min_cycle;Max_cycle;Signal;HPM_P1;HPM_P2
2023/06/24 00:01:02;;;;;;;;;;;;;;;9.36;100.00;100481.81;4943044;29;19929;-87
2023/06/24 00:03:37;;;;;;;;;;;;;;;9.27;100.00;100475.84;4957465;28;20349;-91
2023/06/24 00:06:03;;;;;;;;;;;;;;;9.21;100.00;100483.94;4942607;29;19930;-86
2023/06/24 00:08:36;;;;;;;;;;;;;;;9.15;100.00;100484.09;4944568;28;19918;-91
2023/06/24 00:11:02;;;;;;;;;;;;;;;9.22;100.00;100479.50;4944028;29;19927;-87
2023/06/24 00:13:28;;;;;;;;;;;;;;;9.21;100.00;100478.66;4951137;28;19923;-88
2023/06/24 00:15:54;;;;;;;;;;;;;;;9.16;100.00;100477.91;4943265;29;19959;-89
2023/06/24 00:18:26;;;;;;;;;;;;;;;9.11;100.00;100476.28;4946978;28;19926;-90
2023/06/24 00:20:52;;;;;;;;;;;;;;;9.09;100.00;100484.25;4946718;29;19919;-87
2023/06/24 00:23:24;;;;;;;;;;;;;;;9.13;100.00;100479.78;4948795;28;19922;-86
2023/06/24 00:26:09;;;;;;;;;;;;;;;9.03;100.00;100481.75;4961564;28;19926;-87
2023/06/24 00:31:03;;;;;;;;;;;;;;;9.07;100.00;100483.44;4982192;23;20170;-85
2023/06/24 00:33:29;;;;;;;;;;;;;;;9.08;100.00;100487.81;4974779;28;20395;-88
2023/06/24 00:35:56;;;;;;;;;;;;;;;9.05;100.00;100475.53;4975929;28;19918;-84
2023/06/24 00:38:21;;;;;;;;;;;;;;;9.04;100.00;100487.00;4975683;28;19921;-86
2023/06/24 00:40:46;;;;;;;;;;;;;;;9.07;100.00;100491.38;4975932;28;20384;-85
2023/06/24 00:43:12;;;;;;;;;;;;;;;9.03;100.00;100498.50;4976100;28;20270;-92
2023/06/24 00:45:38;;;;;;;;;;;;;;;8.99;100.00;100498.63;4974543;28;19929;-86
2023/06/24 00:48:03;;;;;;;;;;;;;;;8.98;100.00;100491.59;4975924;28;19925;-88
2023/06/24 00:50:29;;;;;;;;;;;;;;;8.96;100.00;100499.56;4987295;28;19993;-82
2023/06/24 00:52:54;;;;;;;;;;;;;;;8.95;100.00;100494.31;4971178;28;19922;-85
2023/06/24 00:55:20;;;;;;;;;;;;;;;8.93;100.00;100501.41;4973696;28;20365;-85
2023/06/24 00:57:50;;;;;;;;;;;;;;;8.96;100.00;100502.19;4974031;28;19965;-85
2023/06/24 01:00:18;;;;;;;;;;;;;;;8.96;100.00;100503.97;4972842;28;19984;-86
2023/06/24 01:02:44;;;;;;;;;;;;;;;8.93;100.00;100498.78;4968916;28;19926;-87
2023/06/24 01:05:10;;;;;;;;;;;;;;;8.86;100.00;100493.63;4975493;28;19926;-87
2023/06/24 01:07:37;;;;;;;;;;;;;;;8.90;100.00;100494.41;4973774;28;20368;-86
2023/06/24 01:10:05;;;;;;;;;;;;;;;8.87;100.00;100499.78;4973830;28;20270;-86
2023/06/24 01:12:32;;;;;;;;;;;;;;;8.86;100.00;100493.63;4974126;28;19926;-86
2023/06/24 01:14:58;;;;;;;;;;;;;;;8.83;100.00;100490.19;4971683;28;19925;-86
2023/06/24 01:17:28;;;;;;;;;;;;;;;8.88;100.00;100499.75;4975006;28;20009;-85
2023/06/24 05:18:50;;;;;;;;;;;;;;;8.29;100.00;100538.94;5005487;23;19993;-85
2023/06/24 05:21:16;;;;;;;;;;;;;;;8.16;100.00;100547.13;4955982;29;19922;-82
2023/06/24 05:23:41;;;;;;;;;;;;;;;8.16;100.00;100541.84;4955669;29;20354;-85
2023/06/24 05:26:06;;;;;;;;;;;;;;;8.26;100.00;100536.38;4955869;29;20899;-84
2023/06/24 05:28:32;;;;;;;;;;;;;;;8.16;100.00;100540.97;4955708;29;19968;-86
2023/06/24 05:30:57;;;;;;;;;;;;;;;8.17;100.00;100540.09;4954388;29;20408;-85
2023/06/24 05:33:22;;;;;;;;;;;;;;;8.19;100.00;100546.19;4954463;29;19919;-85
2023/06/24 05:35:49;;;;;;;;;;;;;;;8.21;100.00;100548.81;4955573;29;19922;-85
2023/06/24 05:38:14;;;;;;;;;;;;;;;8.17;100.00;100555.94;4954252;29;19957;-85
2023/06/24 05:40:39;;;;;;;;;;;;;;;8.22;100.00;100550.53;4955497;29;19918;-85
2023/06/24 05:43:05;;;;;;;;;;;;;;;8.08;100.00;100559.59;4955194;29;19929;-85
2023/06/24 05:45:30;;;;;;;;;;;;;;;8.07;100.00;100557.00;4954205;29;19923;-84
2023/06/24 05:47:55;;;;;;;;;;;;;;;8.16;100.00;100565.59;4954136;29;20292;-84
2023/06/24 05:50:20;;;;;;;;;;;;;;;8.16;100.00;100562.97;4955475;29;19919;-85
2023/06/24 05:52:46;;;;;;;;;;;;;;;8.16;100.00;100562.09;4953725;29;19918;-86
2023/06/24 05:55:13;;;;;;;;;;;;;;;8.12;100.00;100563.03;4955267;29;19934;-85
2023/06/24 05:57:39;;;;;;;;;;;;;;;8.11;100.00;100563.97;4954530;29;19953;-85
2023/06/24 06:00:04;;;;;;;;;;;;;;;8.16;100.00;100568.22;4953864;29;19969;-86
2023/06/24 06:02:30;;;;;;;;;;;;;;;8.07;100.00;100562.28;4952627;29;19922;-85
2023/06/24 06:04:55;;;;;;;;;;;;;;;8.16;100.00;100562.97;4954905;29;19974;-86
2023/06/24 06:07:20;;;;;;;;;;;;;;;8.06;100.00;100556.13;4953767;29;19922;-85
2023/06/24 06:09:45;;;;;;;;;;;;;;;8.13;100.00;100565.66;4954858;29;19966;-85
2023/06/24 06:12:11;;;;;;;;;;;;;;;8.02;100.00;100558.88;4954623;28;19926;-86
2023/06/24 06:14:37;;;;;;;;;;;;;;;8.07;100.00;100554.34;4953234;29;19918;-84
2023/06/24 06:17:02;;;;;;;;;;;;;;;8.03;100.00;100556.19;4952250;29;19922;-84
2023/06/24 06:19:27;;;;;;;;;;;;;;;8.08;100.00;100553.47;4954472;29;19929;-84
2023/06/24 06:21:52;;;;;;;;;;;;;;;8.05;100.00;100558.81;4954700;29;20018;-85
2023/06/24 06:24:18;;;;;;;;;;;;;;;8.07;100.00;100557.00;4954663;29;20347;-83
2023/06/24 06:26:44;;;;;;;;;;;;;;;8.04;100.00;100557.06;4955047;29;19926;-85
2023/06/24 06:29:09;;;;;;;;;;;;;;;8.00;100.00;100558.91;4954710;29;20342;-85
2023/06/24 06:31:34;;;;;;;;;;;;;;;7.99;100.00;100557.16;4953315;29;19922;-88
2023/06/24 06:34:00;;;;;;;;;;;;;;;8.02;100.00;100559.72;4954643;29;19946;-84
2023/06/24 06:36:25;;;;;;;;;;;;;;;7.99;100.00;100550.13;4954544;29;19941;-84
2023/06/24 06:38:51;;;;;;;;;;;;;;;7.98;100.00;100555.44;4954304;29;19965;-85
2023/06/24 06:41:17;;;;;;;;;;;;;;;8.02;100.00;100559.72;4954345;29;20046;-85
2023/06/24 06:43:42;;;;;;;;;;;;;;;8.03;100.00;100558.84;4953761;29;19926;-85
2023/06/24 06:46:08;;;;;;;;;;;;;;;8.02;100.00;100557.09;4954177;29;19922;-84
2023/06/24 06:48:33;;;;;;;;;;;;;;;8.03;100.00;100556.19;4953110;29;19929;-85
2023/06/24 06:50:58;;;;;;;;;;;;;;;8.05;100.00;100558.81;4954156;29;19918;-85
2023/06/24 06:53:23;;;;;;;;;;;;;;;8.09;100.00;100558.72;4954152;29;19927;-84
2023/06/24 06:55:49;;;;;;;;;;;;;;;8.01;100.00;100558.00;4954337;29;20290;-88
2023/06/24 06:58:14;;;;;;;;;;;;;;;8.13;100.00;100552.47;4954278;29;20285;-84
2023/06/24 07:00:39;;;;;;;;;;;;;;;8.18;100.00;100555.00;4954066;29;20361;-86
2023/06/24 07:03:04;;;;;;;;;;;;;;;8.10;100.00;100551.66;4953140;29;20762;-86
2023/06/24 07:05:30;;;;;;;;;;;;;;;8.16;100.00;100562.09;4954117;29;19915;-85
2023/06/24 07:57:44;;;;;;;;;;;;;;;8.25;100.00;100526.69;5640798;23;19951;-86
2023/06/24 08:00:11;;;;;;;;;;;;;;;8.27;100.00;100528.41;4947471;29;20207;-84
2023/06/24 08:02:36;;;;;;;;;;;;;;;8.22;100.00;100519.72;4947248;29;19922;-85
2023/06/24 08:05:01;;;;;;;;;;;;;;;8.23;100.00;100521.44;4948404;28;20265;-84
2023/06/24 08:07:26;;;;;;;;;;;;;;;8.23;100.00;100520.59;4950765;29;20005;-87
2023/06/24 08:09:52;;;;;;;;;;;;;;;8.23;100.00;100521.44;4951997;29;20486;-85
2023/06/24 08:12:17;;;;;;;;;;;;;;;8.28;100.00;100509.03;4951851;29;19965;-85
2023/06/24 08:14:42;;;;;;;;;;;;;;;8.25;100.00;100510.84;4953365;29;19918;-86
2023/06/24 08:17:07;;;;;;;;;;;;;;;8.26;100.00;100510.81;4952235;29;19922;-86
2023/06/24 08:19:33;;;;;;;;;;;;;;;8.25;100.00;100511.75;4952163;29;19930;-87
2023/06/24 08:22:15;;;;;;;;;;;;;;;8.29;100.00;100508.13;4953345;29;19969;-87
2023/06/24 08:24:40;;;;;;;;;;;;;;;8.32;100.00;100500.13;4952393;29;19927;-84
2023/06/24 08:27:06;;;;;;;;;;;;;;;8.29;100.00;100507.25;4952139;29;20369;-86
2023/06/24 08:29:31;;;;;;;;;;;;;;;8.33;100.00;100506.31;4952027;29;19973;-86
2023/06/24 08:31:56;;;;;;;;;;;;;;;8.33;100.00;100508.94;4951958;29;20389;-86
2023/06/24 08:34:22;;;;;;;;;;;;;;;8.35;100.00;100504.50;4953241;29;19957;-86
2023/06/24 08:36:47;;;;;;;;;;;;;;;8.34;100.00;100503.63;4955026;28;20005;-86
2023/06/24 08:39:12;;;;;;;;;;;;;;;8.32;100.00;100501.91;4955318;29;20110;-86
2023/06/24 08:41:37;;;;;;;;;;;;;;;8.35;100.00;100499.22;4955829;29;19919;-86
2023/06/24 08:44:03;;;;;;;;;;;;;;;8.32;100.00;100504.56;4956110;29;19930;-86
2023/06/24 08:46:30;;;;;;;;;;;;;;;8.38;100.00;100499.13;4955162;29;19918;-86
2023/06/24 08:49:05;;;;;;;;;;;;;;;8.35;100.00;100500.06;4956527;29;20004;-86
2023/06/24 08:51:34;;;;;;;;;;;;;;;8.38;100.00;100493.84;4956501;29;19918;-86
2023/06/24 08:54:00;;;;;;;;;;;;;;;8.35;100.00;100491.28;4954922;29;19962;-85
2023/06/24 08:56:25;;;;;;;;;;;;;;;8.42;100.00;100492.00;4956309;29;20044;-86
2023/06/24 08:58:51;;;;;;;;;;;;;;;8.36;100.00;100488.59;4954929;29;20030;-86
2023/06/24 09:01:17;;;;;;;;;;;;;;;8.35;100.00;100488.66;4954948;29;19923;-86
2023/06/24 09:03:42;;;;;;;;;;;;;;;8.37;100.00;100486.81;4956613;29;19953;-86
2023/06/24 09:06:07;;;;;;;;;;;;;;;8.34;100.00;100485.16;4956113;29;19918;-85
2023/06/24 09:08:35;;;;;;;;;;;;;;;8.38;100.00;100483.28;4954846;29;19946;-87
2023/06/24 09:11:00;;;;;;;;;;;;;;;8.35;100.00;100488.66;4956143;29;19966;-86
2023/06/24 09:13:37;;;;;;;;;;;;;;;8.49;100.00;100491.88;4954763;29;19970;-85
2023/06/24 09:16:13;;;;;;;;;;;;;;;8.47;100.00;100487.50;4955921;29;20013;-89
2023/06/24 09:18:39;;;;;;;;;;;;;;;8.53;100.00;100472.38;4954604;29;20274;-86
2023/06/24 09:21:04;;;;;;;;;;;;;;;8.47;100.00;100472.56;4955803;29;19928;-87
2023/06/24 09:23:29;;;;;;;;;;;;;;;8.49;100.00;100465.47;4954403;29;20345;-87
2023/06/24 09:26:01;;;;;;;;;;;;;;;8.47;100.00;100459.34;4955820;29;19922;-87
2023/06/24 09:28:27;;;;;;;;;;;;;;;8.46;100.00;100462.03;4953817;29;19925;-86
2023/06/24 09:31:10;;;;;;;;;;;;;;;8.51;100.00;100457.50;4954552;29;19918;-87
2023/06/24 09:33:35;;;;;;;;;;;;;;;8.44;100.00;100450.59;4954246;29;19947;-86
2023/06/24 09:36:04;;;;;;;;;;;;;;;8.49;100.00;100449.63;4955576;29;19989;-87
2023/06/24 09:38:36;;;;;;;;;;;;;;;8.51;100.00;100447.78;4954239;29;19973;-87
2023/06/24 09:41:03;;;;;;;;;;;;;;;8.53;100.00;100450.41;4955476;29;19965;-86
2023/06/24 09:43:28;;;;;;;;;;;;;;;8.54;100.00;100441.59;4954161;29;20413;-86
2023/06/24 09:45:54;;;;;;;;;;;;;;;8.62;100.00;100444.03;4954164;29;20002;-85
2023/06/24 09:48:21;;;;;;;;;;;;;;;8.63;100.00;100443.13;4955056;28;19924;-86
2023/06/24 09:50:47;;;;;;;;;;;;;;;8.63;100.00;100435.19;4954800;29;19961;-86
2023/06/24 09:53:12;;;;;;;;;;;;;;;8.61;100.00;100434.38;4953692;29;19961;-86
2023/06/24 09:55:43;;;;;;;;;;;;;;;8.59;100.00;100438.84;4955349;29;20441;-87
2023/06/24 09:58:09;;;;;;;;;;;;;;;8.62;100.00;100430.84;4952517;29;19923;-87
2023/06/24 10:00:34;;;;;;;;;;;;;;;8.69;100.00;100440.31;4955303;28;19991;-86
2023/06/24 10:03:02;;;;;;;;;;;;;;;8.60;100.00;100437.91;4955046;29;20285;-89
2023/06/24 10:05:27;;;;;;;;;;;;;;;8.65;100.00;100433.41;4954258;29;19958;-85
2023/06/24 10:07:52;;;;;;;;;;;;;;;8.60;100.00;100435.25;4955003;29;19961;-85
2023/06/24 10:10:18;;;;;;;;;;;;;;;8.60;100.00;100429.97;4954968;29;20329;-85
2023/06/24 10:12:43;;;;;;;;;;;;;;;8.63;100.00;100429.91;4953649;29;19922;-85
2023/06/24 10:15:09;;;;;;;;;;;;;;;8.65;100.00;100425.47;4954945;29;19930;-85
2023/06/24 10:17:34;;;;;;;;;;;;;;;8.67;100.00;100427.16;4953228;29;19977;-85
2023/06/24 10:20:03;;;;;;;;;;;;;;;8.64;100.00;100421.94;4955034;29;19926;-85
2023/06/24 10:22:30;;;;;;;;;;;;;;;8.67;100.00;100421.00;4954751;29;19918;-88
2023/06/24 10:24:59;;;;;;;;;;;;;;;8.61;100.00;100426.44;4969527;28;19925;-85
2023/06/24 10:27:26;;;;;;;;;;;;;;;8.66;100.00;100413.97;4953108;29;19918;-85
2023/06/24 10:29:53;;;;;;;;;;;;;;;8.66;100.00;100424.56;4954621;29;19981;-85
2023/06/24 10:32:18;;;;;;;;;;;;;;;8.62;100.00;100417.63;4952272;29;20008;-85
2023/06/24 10:34:44;;;;;;;;;;;;;;;8.63;100.00;100411.41;4954641;29;19998;-85
2023/06/24 10:37:17;;;;;;;;;;;;;;;8.60;100.00;100403.56;4954641;29;19922;-86
2023/06/24 10:39:49;;;;;;;;;;;;;;;8.60;100.00;100390.34;4969029;28;19919;-85
2023/06/24 10:42:17;;;;;;;;;;;;;;;8.60;100.00;100396.53;4952912;29;19929;-85
2023/06/24 10:44:48;;;;;;;;;;;;;;;8.65;100.00;100393.78;4954219;29;19922;-86
2023/06/24 10:47:14;;;;;;;;;;;;;;;8.60;100.00;100393.00;4954103;29;19924;-87
2023/06/24 10:49:39;;;;;;;;;;;;;;;8.63;100.00;100382.34;4954212;29;19919;-87
2023/06/24 10:52:07;;;;;;;;;;;;;;;8.66;100.00;100388.47;4954180;29;19977;-86
2023/06/24 10:54:32;;;;;;;;;;;;;;;8.63;100.00;100379.72;4953656;29;20009;-88
2023/06/24 10:56:58;;;;;;;;;;;;;;;8.59;100.00;100376.28;4952697;29;20001;-86
2023/06/24 10:59:23;;;;;;;;;;;;;;;8.68;100.00;100380.47;4953440;28;19926;-85
2023/06/24 11:01:55;;;;;;;;;;;;;;;8.71;100.00;100362.78;4954209;29;20258;-85
2023/06/24 11:04:20;;;;;;;;;;;;;;;8.69;100.00;100371.63;4954009;29;20009;-87
2023/06/24 11:07:01;;;;;;;;;;;;;;;8.69;100.00;100367.22;4954332;29;20009;-88
2023/06/24 11:09:27;;;;;;;;;;;;;;;8.82;100.00;100370.44;4954100;29;19922;-86
2023/06/24 11:11:52;;;;;;;;;;;;;;;8.78;100.00;100371.41;4952920;29;20341;-86
2023/06/24 11:14:17;;;;;;;;;;;;;;;8.82;100.00;100359.84;4953897;29;19919;-86
2023/06/24 11:16:43;;;;;;;;;;;;;;;8.84;100.00;100358.03;4952792;29;20026;-87
2023/06/24 11:19:08;;;;;;;;;;;;;;;8.95;100.00;100362.16;4954129;29;19945;-86
2023/06/24 11:21:33;;;;;;;;;;;;;;;8.96;100.00;100353.31;4953863;29;20001;-85
2023/06/24 11:24:05;;;;;;;;;;;;;;;8.93;100.00;100353.41;4953921;29;20033;-86
2023/06/24 11:26:30;;;;;;;;;;;;;;;8.88;100.00;100346.44;4954074;29;20506;-89
2023/06/24 11:28:55;;;;;;;;;;;;;;;8.90;100.00;100347.31;4952781;29;19970;-86
2023/06/24 11:31:27;;;;;;;;;;;;;;;8.91;100.00;100346.38;4952796;29;19933;-86
2023/06/24 11:33:52;;;;;;;;;;;;;;;8.84;100.00;100341.28;4953681;29;19918;-85
2023/06/24 11:36:22;;;;;;;;;;;;;;;8.90;100.00;100334.09;4953795;29;19927;-89
2023/06/24 11:38:49;;;;;;;;;;;;;;;8.94;100.00;100339.28;4953783;29;19919;-89
2023/06/24 11:41:15;;;;;;;;;;;;;;;8.94;100.00;100337.50;4968028;28;19981;-84
2023/06/24 11:43:44;;;;;;;;;;;;;;;8.96;100.00;100337.47;4952289;29;19958;-86
2023/06/24 11:46:09;;;;;;;;;;;;;;;8.89;100.00;100332.34;4953676;29;19929;-86
2023/06/24 11:48:41;;;;;;;;;;;;;;;8.86;100.00;100332.44;4952473;29;19919;-88
2023/06/24 11:51:15;;;;;;;;;;;;;;;8.85;100.00;100320.09;4951948;29;20351;-85
2023/06/24 11:53:45;;;;;;;;;;;;;;;8.89;100.00;100320.91;4953400;29;19930;-83
2023/06/24 11:56:11;;;;;;;;;;;;;;;8.91;100.00;100312.00;4953592;29;19985;-88
2023/06/24 11:58:36;;;;;;;;;;;;;;;8.88;100.00;100308.59;4952225;29;20369;-88
2023/06/24 12:01:02;;;;;;;;;;;;;;;8.84;100.00;100313.13;4952412;29;19922;-87
2023/06/24 12:03:32;;;;;;;;;;;;;;;8.85;100.00;100301.63;4953431;29;19965;-85
2023/06/24 12:05:57;;;;;;;;;;;;;;;8.82;100.00;100293.78;4953516;29;19926;-86
2023/06/24 12:08:22;;;;;;;;;;;;;;;8.83;100.00;100292.88;4952298;29;19970;-86
2023/06/24 12:10:48;;;;;;;;;;;;;;;8.84;100.00;100291.09;4953824;28;19929;-86
2023/06/24 12:13:13;;;;;;;;;;;;;;;8.86;100.00;100284.84;4955577;29;19968;-86
2023/06/24 12:15:39;;;;;;;;;;;;;;;8.85;100.00;100283.13;4957062;29;19929;-84
2023/06/24 12:18:05;;;;;;;;;;;;;;;8.83;100.00;100277.00;4956886;29;20337;-85
2023/06/24 12:20:30;;;;;;;;;;;;;;;8.76;100.00;100267.53;4956779;29;20328;-86
2023/06/24 12:22:55;;;;;;;;;;;;;;;8.78;100.00;100276.28;4956983;29;20004;-84
2023/06/24 12:25:21;;;;;;;;;;;;;;;8.72;100.00;100266.72;4956996;29;19969;-86
2023/06/24 12:27:46;;;;;;;;;;;;;;;8.71;100.00;100269.41;4955537;29;19974;-89
2023/06/24 12:30:12;;;;;;;;;;;;;;;8.73;100.00;100270.25;4956894;29;20401;-83
2023/06/24 12:32:38;;;;;;;;;;;;;;;8.73;100.00;100273.75;4956804;29;19965;-86
2023/06/24 12:35:03;;;;;;;;;;;;;;;8.75;100.00;100268.44;4956687;29;19918;-86
2023/06/24 12:37:32;;;;;;;;;;;;;;;8.76;100.00;100259.63;4956730;29;19922;-86
2023/06/24 12:39:58;;;;;;;;;;;;;;;8.79;100.00;100261.28;4955939;29;19923;-84
2023/06/24 12:42:23;;;;;;;;;;;;;;;8.77;100.00;100252.53;4955342;29;19934;-86
2023/06/24 12:44:48;;;;;;;;;;;;;;;8.76;100.00;100262.25;4956752;29;20049;-85
2023/06/24 12:47:14;;;;;;;;;;;;;;;8.72;100.00;100255.31;4956689;29;19918;-85
2023/06/24 12:49:39;;;;;;;;;;;;;;;8.77;100.00;100250.75;4956766;29;20024;-85
2023/06/24 12:52:04;;;;;;;;;;;;;;;8.79;100.00;100250.72;4956350;29;20001;-84
2023/06/24 12:54:30;;;;;;;;;;;;;;;8.76;100.00;100243.75;4956452;29;19941;-82
2023/06/24 12:56:55;;;;;;;;;;;;;;;8.75;100.00;100238.53;4955355;29;19922;-83
2023/06/24 12:59:20;;;;;;;;;;;;;;;8.83;100.00;100242.66;4956352;29;19930;-84
2023/06/24 13:01:46;;;;;;;;;;;;;;;8.79;100.00;100241.03;4956105;29;19918;-84
2023/06/24 13:04:11;;;;;;;;;;;;;;;8.87;100.00;100232.88;4956210;29;19918;-84
2023/06/24 13:06:36;;;;;;;;;;;;;;;8.83;100.00;100226.81;4956080;29;19918;-84
2023/06/24 13:09:02;;;;;;;;;;;;;;;9.06;100.00;100233.19;4956339;29;19923;-84
2023/06/24 13:11:27;;;;;;;;;;;;;;;8.97;100.00;100221.13;4956204;29;19919;-84
2023/06/24 13:13:53;;;;;;;;;;;;;;;8.95;100.00;100230.88;4954907;29;20017;-83
2023/06/24 13:16:18;;;;;;;;;;;;;;;8.91;100.00;100216.03;4956237;29;19919;-83
2023/06/24 13:18:43;;;;;;;;;;;;;;;8.94;100.00;100220.38;4955912;29;20333;-83
2023/06/24 13:21:08;;;;;;;;;;;;;;;8.98;100.00;100225.47;4955847;29;19973;-83
2023/06/24 13:23:34;;;;;;;;;;;;;;;9.56;100.00;100229.94;4955312;28;19918;-84
2023/06/24 13:25:59;;;;;;;;;;;;;;;10.11;100.00;100229.91;4955860;29;19922;-84
2023/06/24 13:28:24;;;;;;;;;;;;;;;10.36;100.00;100224.66;4954524;29;20370;-83
2023/06/24 13:30:50;;;;;;;;;;;;;;;10.09;100.00;100226.44;4955493;29;19926;-84
2023/06/24 13:33:15;;;;;;;;;;;;;;;9.57;100.00;100224.59;4954089;29;19957;-84
2023/06/24 13:35:40;;;;;;;;;;;;;;;9.36;100.00;100215.53;4955345;29;19925;-85
2023/06/24 13:38:07;;;;;;;;;;;;;;;9.24;100.00;100210.66;4955615;29;19928;-84
2023/06/24 13:40:33;;;;;;;;;;;;;;;9.18;100.00;100203.75;4954740;29;19933;-84
2023/06/24 13:42:58;;;;;;;;;;;;;;;9.20;100.00;100209.84;4953968;29;19918;-88
2023/06/24 13:45:24;;;;;;;;;;;;;;;9.12;100.00;100201.28;4954223;29;19922;-84
2023/06/24 13:47:49;;;;;;;;;;;;;;;9.09;100.00;100198.75;4955015;29;19918;-84
2023/06/24 13:50:14;;;;;;;;;;;;;;;9.04;100.00;100200.66;4955000;29;20478;-84
2023/06/24 13:52:40;;;;;;;;;;;;;;;9.02;100.00;100190.13;4955008;29;20010;-84
2023/06/24 13:55:05;;;;;;;;;;;;;;;8.98;100.00;100184.97;4955394;29;20377;-84
2023/06/24 13:57:30;;;;;;;;;;;;;;;8.99;100.00;100184.09;4953950;29;20292;-85
2023/06/24 13:59:55;;;;;;;;;;;;;;;9.00;100.00;100185.78;4955119;29;19930;-84
2023/06/24 14:02:21;;;;;;;;;;;;;;;8.95;100.00;100182.44;4955146;29;20369;-85
2023/06/24 14:04:46;;;;;;;;;;;;;;;8.99;100.00;100177.00;4955074;29;19922;-85
2023/06/24 14:07:11;;;;;;;;;;;;;;;8.93;100.00;100176.34;4954837;29;19918;-85
2023/06/24 14:09:38;;;;;;;;;;;;;;;8.97;100.00;100175.34;4953747;29;19930;-85
2023/06/24 14:12:03;;;;;;;;;;;;;;;8.96;100.00;100165.66;4953827;29;19937;-85
2023/06/24 14:14:28;;;;;;;;;;;;;;;9.01;100.00;100167.25;4954861;29;19923;-85
2023/06/24 14:16:54;;;;;;;;;;;;;;;9.04;100.00;100161.00;4954739;29;19918;-84
2023/06/24 14:19:19;;;;;;;;;;;;;;;9.09;100.00;100169.66;4954740;29;19923;-85
2023/06/24 14:21:44;;;;;;;;;;;;;;;9.05;100.00;100158.31;4953676;29;19930;-84
2023/06/24 14:24:11;;;;;;;;;;;;;;;9.01;100.00;100158.47;4954681;29;20031;-85
2023/06/24 14:26:36;;;;;;;;;;;;;;;9.06;100.00;100164.47;4954134;29;20388;-84
2023/06/24 14:29:02;;;;;;;;;;;;;;;9.09;100.00;100152.03;4953461;29;19919;-85
2023/06/24 14:31:27;;;;;;;;;;;;;;;9.15;100.00;100164.19;4954627;29;19930;-85
2023/06/24 14:33:52;;;;;;;;;;;;;;;9.52;100.00;100157.72;4953446;28;19919;-84
2023/06/24 14:36:18;;;;;;;;;;;;;;;10.11;100.00;100153.97;4954482;29;20008;-84
2023/06/24 14:38:44;;;;;;;;;;;;;;;10.29;100.00;100154.22;4954389;29;19918;-85
2023/06/24 14:41:10;;;;;;;;;;;;;;;10.21;100.00;100157.19;4954474;29;20009;-85
2023/06/24 14:43:35;;;;;;;;;;;;;;;9.60;100.00;100146.91;4953219;29;20057;-86
2023/06/24 14:46:00;;;;;;;;;;;;;;;9.41;100.00;100143.97;4954255;29;20358;-84
2023/06/24 14:48:26;;;;;;;;;;;;;;;9.31;100.00;100134.63;4954305;29;20021;-84
2023/06/24 14:50:51;;;;;;;;;;;;;;;9.20;100.00;100135.81;4952854;29;20289;-84
2023/06/24 14:53:16;;;;;;;;;;;;;;;9.21;100.00;100136.72;4954160;29;19925;-84
2023/06/24 14:55:41;;;;;;;;;;;;;;;9.15;100.00;100132.47;4954358;29;19919;-84
2023/06/24 14:58:07;;;;;;;;;;;;;;;9.21;100.00;100131.41;4952833;29;19929;-85
2023/06/24 15:00:32;;;;;;;;;;;;;;;9.24;100.00;100126.88;4954145;29;19922;-84
2023/06/24 15:02:57;;;;;;;;;;;;;;;9.25;100.00;100122.47;4954172;29;20269;-85
2023/06/24 15:05:22;;;;;;;;;;;;;;;9.17;100.00;100113.91;4954041;29;19962;-84
2023/06/24 15:07:48;;;;;;;;;;;;;;;9.22;100.00;100123.44;4952765;29;20263;-86
2023/06/24 15:10:16;;;;;;;;;;;;;;;9.29;100.00;100120.59;4954084;29;20005;-87
2023/06/24 15:12:41;;;;;;;;;;;;;;;9.24;100.00;100116.31;4953003;29;20045;-85
2023/06/24 15:15:06;;;;;;;;;;;;;;;9.20;100.00;100117.31;4952825;29;20005;-85
2023/06/24 15:17:34;;;;;;;;;;;;;;;9.23;100.00;100109.28;4953901;29;19922;-84
2023/06/24 15:19:59;;;;;;;;;;;;;;;9.20;100.00;100112.03;4952972;29;19926;-84
2023/06/24 15:22:25;;;;;;;;;;;;;;;9.20;100.00;100109.38;4953927;29;19918;-84
2023/06/24 15:24:50;;;;;;;;;;;;;;;9.17;100.00;100114.75;4953892;29;19966;-86
2023/06/24 15:27:15;;;;;;;;;;;;;;;9.13;100.00;100107.88;4952650;29;19989;-87
2023/06/24 15:29:40;;;;;;;;;;;;;;;9.14;100.00;100104.28;4953899;29;20040;-90
2023/06/24 15:32:06;;;;;;;;;;;;;;;9.17;100.00;100113.91;4952458;29;19918;-86
2023/06/24 15:34:31;;;;;;;;;;;;;;;9.15;100.00;100105.16;4953710;29;19929;-85
2023/06/24 15:36:57;;;;;;;;;;;;;;;9.23;100.00;100097.84;4953627;29;19926;-85
2023/06/24 15:39:22;;;;;;;;;;;;;;;9.23;100.00;100096.06;4953903;29;19970;-86
2023/06/24 15:41:50;;;;;;;;;;;;;;;9.27;100.00;100096.84;4952491;29;19962;-87
2023/06/24 15:44:16;;;;;;;;;;;;;;;9.23;100.00;100097.84;4953770;29;19919;-85
2023/06/24 15:46:44;;;;;;;;;;;;;;;9.31;100.00;100098.47;4957203;28;19918;-85
2023/06/24 15:49:09;;;;;;;;;;;;;;;9.26;100.00;100097.75;4957653;29;19943;-85
2023/06/24 15:51:35;;;;;;;;;;;;;;;9.30;100.00;100093.22;4957536;29;19989;-87
2023/06/24 15:54:00;;;;;;;;;;;;;;;9.34;100.00;100098.38;4957380;29;20328;-85
2023/06/24 15:56:25;;;;;;;;;;;;;;;9.29;100.00;100091.50;4957646;29;19925;-85
2023/06/24 15:58:51;;;;;;;;;;;;;;;9.27;100.00;100092.41;4953029;28;19926;-85
2023/06/24 16:01:16;;;;;;;;;;;;;;;9.31;100.00;100089.69;4956634;28;20837;-85
2023/06/24 16:03:41;;;;;;;;;;;;;;;9.30;100.00;100078.22;4956753;28;19922;-84
2023/06/24 16:06:07;;;;;;;;;;;;;;;9.30;100.00;100080.00;4956621;28;19938;-84
2023/06/24 16:08:32;;;;;;;;;;;;;;;9.22;100.00;100086.44;4955599;28;19929;-84
2023/06/24 16:10:59;;;;;;;;;;;;;;;9.25;100.00;100085.44;4955282;28;20378;-84
2023/06/24 16:13:24;;;;;;;;;;;;;;;9.25;100.00;100081.03;4955462;29;20377;-84
2023/06/24 16:15:52;;;;;;;;;;;;;;;9.31;100.00;100074.66;4955607;29;20037;-84
2023/06/24 16:18:17;;;;;;;;;;;;;;;9.26;100.00;100081.88;4951302;29;20001;-84
2023/06/24 16:20:43;;;;;;;;;;;;;;;9.26;100.00;100076.59;4954138;29;19978;-84
2023/06/24 16:23:08;;;;;;;;;;;;;;;9.26;100.00;100077.47;4955201;29;19923;-88
2023/06/24 16:25:34;;;;;;;;;;;;;;;9.31;100.00;100076.44;4955994;29;19918;-85
2023/06/24 16:27:59;;;;;;;;;;;;;;;9.29;100.00;100073.00;4953891;29;20334;-85
2023/06/24 16:30:24;;;;;;;;;;;;;;;9.25;100.00;100069.56;4956123;29;19926;-86
2023/06/24 16:32:49;;;;;;;;;;;;;;;9.22;100.00;100072.31;4955668;29;20384;-86
2023/06/24 16:35:15;;;;;;;;;;;;;;;9.23;100.00;100066.13;4956731;29;19934;-87
2023/06/24 16:37:41;;;;;;;;;;;;;;;9.20;100.00;100071.50;4956562;29;19969;-86
2023/06/24 16:40:10;;;;;;;;;;;;;;;9.23;100.00;100066.97;4955304;29;19919;-85
2023/06/24 16:42:36;;;;;;;;;;;;;;;9.21;100.00;100068.81;4954674;29;19918;-88
2023/06/24 16:45:01;;;;;;;;;;;;;;;9.18;100.00;100070.72;4955096;29;20285;-86
2023/06/24 16:47:26;;;;;;;;;;;;;;;9.27;100.00;100068.63;4956665;29;20344;-85
2023/06/24 16:49:52;;;;;;;;;;;;;;;9.26;100.00;100069.53;4953765;28;19942;-85
2023/06/24 16:52:18;;;;;;;;;;;;;;;9.30;100.00;100066.78;4953887;29;19933;-85
2023/06/24 16:54:43;;;;;;;;;;;;;;;9.26;100.00;100063.38;4956261;29;19982;-83
2023/06/24 16:57:08;;;;;;;;;;;;;;;9.25;100.00;100070.47;4954173;28;20769;-85
2023/06/24 16:59:33;;;;;;;;;;;;;;;9.31;100.00;100069.38;4954170;29;19922;-85
2023/06/24 17:01:59;;;;;;;;;;;;;;;9.32;100.00;100064.94;4954782;29;20528;-88
2023/06/24 17:04:24;;;;;;;;;;;;;;;9.29;100.00;100063.28;4953672;29;19918;-85
2023/06/24 17:06:49;;;;;;;;;;;;;;;9.27;100.00;100067.75;4954155;29;19934;-85
2023/06/24 17:09:14;;;;;;;;;;;;;;;9.32;100.00;100060.53;4955549;28;19942;-85
2023/06/24 17:11:40;;;;;;;;;;;;;;;9.35;100.00;100043.69;4955411;28;20297;-85
2023/06/24 17:14:06;;;;;;;;;;;;;;;9.37;100.00;100047.16;4953874;28;19969;-85
2023/06/24 17:16:31;;;;;;;;;;;;;;;9.31;100.00;100052.66;4955551;28;19926;-85
2023/06/24 17:18:57;;;;;;;;;;;;;;;9.36;100.00;100059.50;4955208;28;19922;-85
2023/06/24 17:21:22;;;;;;;;;;;;;;;9.38;100.00;100055.06;4956018;29;19957;-85